sensor_id;sensor_type;location;lat;lon;timestamp;temperature;humidity
8459;DHT22;4266;48.816;9.154;2022-12-07T00:00:30;3.90;99.90
8459;DHT22;4266;48.816;9.154;2022-12-07T00:02:56;3.90;99.90
8459;DHT22;4266;48.816;9.154;2022-12-07T00:05:22;4.00;99.90
8459;DHT22;4266;48.816;9.154;2022-12-07T00:07:48;3.90;99.90
8459;DHT22;4266;48.816;9.154;2022-12-07T00:10:13;4.10;99.90
8459;DHT22;4266;48.816;9.154;2022-12-07T00:12:39;4.00;99.90
8459;DHT22;4266;48.816;9.154;2022-12-07T00:15:06;4.10;99.90
8459;DHT22;4266;48.816;9.154;2022-12-07T00:17:32;4.00;99.90
8459;DHT22;4266;48.816;9.154;2022-12-07T00:19:58;3.90;99.90
8459;DHT22;4266;48.816;9.154;2022-12-07T00:22:24;3.90;99.90
8459;DHT22;4266;48.816;9.154;2022-12-07T00:24:49;3.90;99.90
8459;DHT22;4266;48.816;9.154;2022-12-07T00:27:15;3.90;99.90
8459;DHT22;4266;48.816;9.154;2022-12-07T00:29:41;3.80;99.90
8459;DHT22;4266;48.816;9.154;2022-12-07T00:32:07;3.90;99.90
8459;DHT22;4266;48.816;9.154;2022-12-07T00:34:32;3.80;99.90
8459;DHT22;4266;48.816;9.154;2022-12-07T00:36:58;3.80;99.90
8459;DHT22;4266;48.816;9.154;2022-12-07T00:39:24;3.90;99.90
8459;DHT22;4266;48.816;9.154;2022-12-07T00:41:49;3.80;99.90
8459;DHT22;4266;48.816;9.154;2022-12-07T00:44:15;3.90;99.90
8459;DHT22;4266;48.816;9.154;2022-12-07T00:46:41;3.80;99.90
8459;DHT22;4266;48.816;9.154;2022-12-07T00:49:07;3.80;99.90
8459;DHT22;4266;48.816;9.154;2022-12-07T00:51:32;3.80;99.90
8459;DHT22;4266;48.816;9.154;2022-12-07T00:53:58;3.80;99.90
8459;DHT22;4266;48.816;9.154;2022-12-07T00:56:25;3.80;99.90
8459;DHT22;4266;48.816;9.154;2022-12-07T00:58:52;3.80;99.90
8459;DHT22;4266;48.816;9.154;2022-12-07T01:01:16;3.70;99.90
8459;DHT22;4266;48.816;9.154;2022-12-07T01:03:42;3.70;99.90
8459;DHT22;4266;48.816;9.154;2022-12-07T01:06:08;3.70;99.90
8459;DHT22;4266;48.816;9.154;2022-12-07T01:08:33;3.70;99.90
8459;DHT22;4266;48.816;9.154;2022-12-07T01:11:00;3.60;99.90
8459;DHT22;4266;48.816;9.154;2022-12-07T01:13:25;3.60;99.90
8459;DHT22;4266;48.816;9.154;2022-12-07T01:15:50;3.60;99.90
8459;DHT22;4266;48.816;9.154;2022-12-07T01:18:16;3.60;99.90
8459;DHT22;4266;48.816;9.154;2022-12-07T01:20:42;3.60;99.90
8459;DHT22;4266;48.816;9.154;2022-12-07T01:23:08;3.70;99.90
8459;DHT22;4266;48.816;9.154;2022-12-07T01:25:33;3.70;99.90
8459;DHT22;4266;48.816;9.154;2022-12-07T01:27:59;3.70;99.90
8459;DHT22;4266;48.816;9.154;2022-12-07T01:30:25;3.70;99.90
8459;DHT22;4266;48.816;9.154;2022-12-07T01:32:50;3.60;99.90
8459;DHT22;4266;48.816;9.154;2022-12-07T01:35:16;3.70;99.90
8459;DHT22;4266;48.816;9.154;2022-12-07T01:37:42;3.60;99.90
8459;DHT22;4266;48.816;9.154;2022-12-07T01:40:09;3.60;99.90
8459;DHT22;4266;48.816;9.154;2022-12-07T01:42:34;3.60;99.90
8459;DHT22;4266;48.816;9.154;2022-12-07T01:45:31;3.60;99.90
8459;DHT22;4266;48.816;9.154;2022-12-07T01:47:37;3.70;99.90
8459;DHT22;4266;48.816;9.154;2022-12-07T01:50:04;3.50;99.90
8459;DHT22;4266;48.816;9.154;2022-12-07T01:52:30;3.50;99.90
8459;DHT22;4266;48.816;9.154;2022-12-07T01:54:58;3.50;99.90
8459;DHT22;4266;48.816;9.154;2022-12-07T01:57:23;3.40;99.90
8459;DHT22;4266;48.816;9.154;2022-12-07T01:59:49;3.40;99.90
8459;DHT22;4266;48.816;9.154;2022-12-07T02:02:18;3.50;99.90
8459;DHT22;4266;48.816;9.154;2022-12-07T02:04:43;3.40;99.90
8459;DHT22;4266;48.816;9.154;2022-12-07T02:07:08;3.60;99.90
8459;DHT22;4266;48.816;9.154;2022-12-07T02:09:35;3.60;99.90
8459;DHT22;4266;48.816;9.154;2022-12-07T02:12:01;3.60;99.90
8459;DHT22;4266;48.816;9.154;2022-12-07T02:14:26;3.60;99.90
8459;DHT22;4266;48.816;9.154;2022-12-07T02:17:14;3.50;99.90
8459;DHT22;4266;48.816;9.154;2022-12-07T02:20:02;3.60;99.90
8459;DHT22;4266;48.816;9.154;2022-12-07T02:28:06;3.50;99.90
8459;DHT22;4266;48.816;9.154;2022-12-07T02:30:31;3.40;99.90
8459;DHT22;4266;48.816;9.154;2022-12-07T02:33:05;3.40;99.90
8459;DHT22;4266;48.816;9.154;2022-12-07T02:35:35;3.50;99.90
8459;DHT22;4266;48.816;9.154;2022-12-07T02:38:11;3.40;99.90
8459;DHT22;4266;48.816;9.154;2022-12-07T02:40:35;3.40;99.90
8459;DHT22;4266;48.816;9.154;2022-12-07T02:43:04;3.40;99.90
8459;DHT22;4266;48.816;9.154;2022-12-07T02:45:27;3.30;99.90
8459;DHT22;4266;48.816;9.154;2022-12-07T02:47:53;3.30;99.90
8459;DHT22;4266;48.816;9.154;2022-12-07T02:50:20;3.30;99.90
8459;DHT22;4266;48.816;9.154;2022-12-07T02:52:45;3.30;99.90
8459;DHT22;4266;48.816;9.154;2022-12-07T02:55:11;3.40;99.90
8459;DHT22;4266;48.816;9.154;2022-12-07T02:57:43;3.30;99.90
8459;DHT22;4266;48.816;9.154;2022-12-07T03:00:07;3.40;99.90
8459;DHT22;4266;48.816;9.154;2022-12-07T03:02:39;3.40;99.90
8459;DHT22;4266;48.816;9.154;2022-12-07T03:10:28;3.40;99.90
8459;DHT22;4266;48.816;9.154;2022-12-07T03:13:09;3.40;99.90
8459;DHT22;4266;48.816;9.154;2022-12-07T03:18:15;3.30;99.90
8459;DHT22;4266;48.816;9.154;2022-12-07T03:20:39;3.30;99.90
8459;DHT22;4266;48.816;9.154;2022-12-07T03:23:05;3.30;99.90
8459;DHT22;4266;48.816;9.154;2022-12-07T03:25:31;3.30;99.90
8459;DHT22;4266;48.816;9.154;2022-12-07T03:27:57;3.30;99.90
8459;DHT22;4266;48.816;9.154;2022-12-07T03:30:27;3.30;99.90
8459;DHT22;4266;48.816;9.154;2022-12-07T03:32:53;3.30;99.90
8459;DHT22;4266;48.816;9.154;2022-12-07T03:35:21;3.30;99.90
8459;DHT22;4266;48.816;9.154;2022-12-07T03:37:47;3.30;99.90
8459;DHT22;4266;48.816;9.154;2022-12-07T03:40:16;3.40;99.90
8459;DHT22;4266;48.816;9.154;2022-12-07T03:42:40;3.30;99.90
8459;DHT22;4266;48.816;9.154;2022-12-07T03:45:07;3.30;99.90
8459;DHT22;4266;48.816;9.154;2022-12-07T03:47:33;3.30;99.90
8459;DHT22;4266;48.816;9.154;2022-12-07T03:50:07;3.30;99.90
8459;DHT22;4266;48.816;9.154;2022-12-07T03:52:40;3.20;99.90
8459;DHT22;4266;48.816;9.154;2022-12-07T03:55:10;3.20;99.90
8459;DHT22;4266;48.816;9.154;2022-12-07T03:57:34;3.20;99.90
8459;DHT22;4266;48.816;9.154;2022-12-07T04:00:00;3.20;99.90
8459;DHT22;4266;48.816;9.154;2022-12-07T04:02:26;3.10;99.90
8459;DHT22;4266;48.816;9.154;2022-12-07T04:04:51;3.10;99.90
8459;DHT22;4266;48.816;9.154;2022-12-07T04:07:17;3.10;99.90
8459;DHT22;4266;48.816;9.154;2022-12-07T04:09:42;3.00;99.90
8459;DHT22;4266;48.816;9.154;2022-12-07T04:12:08;3.00;99.90
8459;DHT22;4266;48.816;9.154;2022-12-07T04:14:34;2.90;99.90
8459;DHT22;4266;48.816;9.154;2022-12-07T04:17:00;2.90;99.90
8459;DHT22;4266;48.816;9.154;2022-12-07T04:19:27;2.70;99.90
8459;DHT22;4266;48.816;9.154;2022-12-07T04:21:51;2.50;99.90
8459;DHT22;4266;48.816;9.154;2022-12-07T04:24:17;2.40;99.90
8459;DHT22;4266;48.816;9.154;2022-12-07T04:26:43;2.50;99.90
8459;DHT22;4266;48.816;9.154;2022-12-07T04:29:09;2.50;99.90
8459;DHT22;4266;48.816;9.154;2022-12-07T04:31:35;2.60;99.90
8459;DHT22;4266;48.816;9.154;2022-12-07T04:34:00;2.60;99.90
8459;DHT22;4266;48.816;9.154;2022-12-07T04:36:26;2.60;99.90
8459;DHT22;4266;48.816;9.154;2022-12-07T04:38:53;2.70;99.60
8459;DHT22;4266;48.816;9.154;2022-12-07T04:41:18;2.70;98.70
8459;DHT22;4266;48.816;9.154;2022-12-07T04:43:44;2.80;98.00
8459;DHT22;4266;48.816;9.154;2022-12-07T04:46:10;2.80;96.90
8459;DHT22;4266;48.816;9.154;2022-12-07T04:48:35;2.80;96.90
8459;DHT22;4266;48.816;9.154;2022-12-07T04:51:02;2.90;96.50
8459;DHT22;4266;48.816;9.154;2022-12-07T04:53:27;2.90;96.50
8459;DHT22;4266;48.816;9.154;2022-12-07T04:55:52;2.80;96.10
8459;DHT22;4266;48.816;9.154;2022-12-07T04:58:18;2.80;96.30
8459;DHT22;4266;48.816;9.154;2022-12-07T05:00:44;2.80;96.20
8459;DHT22;4266;48.816;9.154;2022-12-07T05:03:10;2.70;96.60
8459;DHT22;4266;48.816;9.154;2022-12-07T05:05:39;2.70;96.60
8459;DHT22;4266;48.816;9.154;2022-12-07T05:08:03;2.70;95.90
8459;DHT22;4266;48.816;9.154;2022-12-07T05:10:28;2.70;95.90
8459;DHT22;4266;48.816;9.154;2022-12-07T05:12:54;2.60;95.50
8459;DHT22;4266;48.816;9.154;2022-12-07T05:15:20;2.60;94.90
8459;DHT22;4266;48.816;9.154;2022-12-07T05:17:46;2.50;95.50
8459;DHT22;4266;48.816;9.154;2022-12-07T05:20:12;2.50;95.50
8459;DHT22;4266;48.816;9.154;2022-12-07T05:22:38;2.40;95.70
8459;DHT22;4266;48.816;9.154;2022-12-07T05:25:04;2.30;96.10
8459;DHT22;4266;48.816;9.154;2022-12-07T05:27:30;2.30;97.20
8459;DHT22;4266;48.816;9.154;2022-12-07T05:29:56;2.30;97.20
8459;DHT22;4266;48.816;9.154;2022-12-07T05:32:22;2.20;97.80
8459;DHT22;4266;48.816;9.154;2022-12-07T05:34:47;2.10;98.50
8459;DHT22;4266;48.816;9.154;2022-12-07T05:37:13;2.10;99.00
8459;DHT22;4266;48.816;9.154;2022-12-07T05:39:39;2.00;99.30
8459;DHT22;4266;48.816;9.154;2022-12-07T05:42:05;1.90;99.70
8459;DHT22;4266;48.816;9.154;2022-12-07T05:44:36;1.90;99.90
8459;DHT22;4266;48.816;9.154;2022-12-07T05:47:02;1.80;99.90
8459;DHT22;4266;48.816;9.154;2022-12-07T05:49:28;1.80;99.90
8459;DHT22;4266;48.816;9.154;2022-12-07T05:51:54;1.80;99.90
8459;DHT22;4266;48.816;9.154;2022-12-07T05:54:19;1.80;99.90
8459;DHT22;4266;48.816;9.154;2022-12-07T05:56:45;1.80;99.90
8459;DHT22;4266;48.816;9.154;2022-12-07T05:59:11;1.80;99.90
8459;DHT22;4266;48.816;9.154;2022-12-07T06:01:43;1.80;99.90
8459;DHT22;4266;48.816;9.154;2022-12-07T06:04:09;2.00;99.90
8459;DHT22;4266;48.816;9.154;2022-12-07T06:06:34;2.00;99.90
8459;DHT22;4266;48.816;9.154;2022-12-07T06:09:00;2.00;99.90
8459;DHT22;4266;48.816;9.154;2022-12-07T06:11:26;2.10;99.90
8459;DHT22;4266;48.816;9.154;2022-12-07T06:13:57;2.20;99.90
8459;DHT22;4266;48.816;9.154;2022-12-07T06:16:23;2.10;99.90
8459;DHT22;4266;48.816;9.154;2022-12-07T06:18:49;2.10;99.90
8459;DHT22;4266;48.816;9.154;2022-12-07T06:21:15;2.00;99.90
8459;DHT22;4266;48.816;9.154;2022-12-07T06:23:40;2.10;99.90
8459;DHT22;4266;48.816;9.154;2022-12-07T06:26:06;2.20;99.90
8459;DHT22;4266;48.816;9.154;2022-12-07T06:28:32;2.30;99.90
8459;DHT22;4266;48.816;9.154;2022-12-07T06:30:58;2.30;99.90
8459;DHT22;4266;48.816;9.154;2022-12-07T06:33:24;2.30;99.90
8459;DHT22;4266;48.816;9.154;2022-12-07T06:35:50;2.30;99.90
8459;DHT22;4266;48.816;9.154;2022-12-07T06:38:15;2.30;99.90
8459;DHT22;4266;48.816;9.154;2022-12-07T06:40:41;2.30;99.90
8459;DHT22;4266;48.816;9.154;2022-12-07T06:43:07;2.30;99.90
8459;DHT22;4266;48.816;9.154;2022-12-07T06:45:32;2.30;99.90
8459;DHT22;4266;48.816;9.154;2022-12-07T06:47:58;2.30;99.90
8459;DHT22;4266;48.816;9.154;2022-12-07T06:50:24;2.30;99.90
8459;DHT22;4266;48.816;9.154;2022-12-07T06:52:50;2.20;99.90
8459;DHT22;4266;48.816;9.154;2022-12-07T06:55:15;2.20;99.90
8459;DHT22;4266;48.816;9.154;2022-12-07T06:57:41;2.20;99.90
8459;DHT22;4266;48.816;9.154;2022-12-07T07:00:07;2.10;99.90
8459;DHT22;4266;48.816;9.154;2022-12-07T07:02:33;2.20;99.90
8459;DHT22;4266;48.816;9.154;2022-12-07T07:04:59;2.20;99.20
8459;DHT22;4266;48.816;9.154;2022-12-07T07:07:25;2.30;98.90
8459;DHT22;4266;48.816;9.154;2022-12-07T07:09:50;2.40;98.20
8459;DHT22;4266;48.816;9.154;2022-12-07T07:12:16;2.40;97.70
8459;DHT22;4266;48.816;9.154;2022-12-07T07:14:42;2.50;97.30
8459;DHT22;4266;48.816;9.154;2022-12-07T07:17:07;2.50;97.30
8459;DHT22;4266;48.816;9.154;2022-12-07T07:19:33;2.60;96.90
8459;DHT22;4266;48.816;9.154;2022-12-07T07:21:59;2.60;96.40
8459;DHT22;4266;48.816;9.154;2022-12-07T07:24:25;2.70;96.00
8459;DHT22;4266;48.816;9.154;2022-12-07T07:26:51;2.80;95.90
8459;DHT22;4266;48.816;9.154;2022-12-07T07:29:18;2.80;95.90
8459;DHT22;4266;48.816;9.154;2022-12-07T07:31:45;2.90;95.50
8459;DHT22;4266;48.816;9.154;2022-12-07T07:34:11;3.00;95.60
8459;DHT22;4266;48.816;9.154;2022-12-07T07:36:37;3.00;95.50
8459;DHT22;4266;48.816;9.154;2022-12-07T07:39:03;3.00;94.90
8459;DHT22;4266;48.816;9.154;2022-12-07T07:41:28;3.00;94.90
8459;DHT22;4266;48.816;9.154;2022-12-07T07:43:54;3.00;94.70
8459;DHT22;4266;48.816;9.154;2022-12-07T07:46:20;3.00;94.70
8459;DHT22;4266;48.816;9.154;2022-12-07T07:48:45;3.00;94.70
8459;DHT22;4266;48.816;9.154;2022-12-07T07:51:11;3.10;94.60
8459;DHT22;4266;48.816;9.154;2022-12-07T07:53:37;3.20;94.40
8459;DHT22;4266;48.816;9.154;2022-12-07T07:56:03;3.30;94.30
8459;DHT22;4266;48.816;9.154;2022-12-07T07:58:29;3.10;94.50
8459;DHT22;4266;48.816;9.154;2022-12-07T08:00:54;3.20;94.50
8459;DHT22;4266;48.816;9.154;2022-12-07T08:03:20;3.20;94.60
8459;DHT22;4266;48.816;9.154;2022-12-07T08:05:46;3.30;94.20
8459;DHT22;4266;48.816;9.154;2022-12-07T08:08:11;3.40;94.70
8459;DHT22;4266;48.816;9.154;2022-12-07T08:10:37;3.40;94.30
8459;DHT22;4266;48.816;9.154;2022-12-07T08:13:03;3.40;94.00
8459;DHT22;4266;48.816;9.154;2022-12-07T08:15:36;3.50;93.80
8459;DHT22;4266;48.816;9.154;2022-12-07T08:18:00;3.60;93.80
8459;DHT22;4266;48.816;9.154;2022-12-07T08:20:26;3.80;94.00
8459;DHT22;4266;48.816;9.154;2022-12-07T08:22:52;3.80;93.90
8459;DHT22;4266;48.816;9.154;2022-12-07T08:25:18;3.90;93.80
8459;DHT22;4266;48.816;9.154;2022-12-07T08:27:43;4.00;93.30
8459;DHT22;4266;48.816;9.154;2022-12-07T08:30:10;4.20;93.20
8459;DHT22;4266;48.816;9.154;2022-12-07T08:32:36;4.20;93.20
8459;DHT22;4266;48.816;9.154;2022-12-07T08:35:01;4.20;92.80
8459;DHT22;4266;48.816;9.154;2022-12-07T08:37:27;4.30;92.70
8459;DHT22;4266;48.816;9.154;2022-12-07T08:39:53;4.40;92.80
8459;DHT22;4266;48.816;9.154;2022-12-07T08:42:19;4.50;92.50
8459;DHT22;4266;48.816;9.154;2022-12-07T08:44:45;4.60;92.50
8459;DHT22;4266;48.816;9.154;2022-12-07T08:47:10;4.70;92.30
8459;DHT22;4266;48.816;9.154;2022-12-07T08:49:37;4.80;92.60
8459;DHT22;4266;48.816;9.154;2022-12-07T08:52:02;4.90;92.60
8459;DHT22;4266;48.816;9.154;2022-12-07T08:54:27;4.90;92.00
8459;DHT22;4266;48.816;9.154;2022-12-07T08:56:54;4.90;92.40
8459;DHT22;4266;48.816;9.154;2022-12-07T08:59:19;5.00;92.10
8459;DHT22;4266;48.816;9.154;2022-12-07T09:01:44;5.00;91.70
8459;DHT22;4266;48.816;9.154;2022-12-07T09:04:10;5.20;91.90
8459;DHT22;4266;48.816;9.154;2022-12-07T09:06:36;5.20;91.60
8459;DHT22;4266;48.816;9.154;2022-12-07T09:09:02;5.20;91.60
8459;DHT22;4266;48.816;9.154;2022-12-07T09:11:27;5.40;91.40
8459;DHT22;4266;48.816;9.154;2022-12-07T09:13:54;5.50;91.60
8459;DHT22;4266;48.816;9.154;2022-12-07T09:16:19;5.50;91.40
8459;DHT22;4266;48.816;9.154;2022-12-07T09:18:45;5.60;91.10
8459;DHT22;4266;48.816;9.154;2022-12-07T09:21:12;5.80;91.50
8459;DHT22;4266;48.816;9.154;2022-12-07T09:23:37;5.80;91.50
8459;DHT22;4266;48.816;9.154;2022-12-07T09:26:04;6.10;90.90
8459;DHT22;4266;48.816;9.154;2022-12-07T09:28:30;6.10;90.90
8459;DHT22;4266;48.816;9.154;2022-12-07T09:30:55;6.00;90.80
8459;DHT22;4266;48.816;9.154;2022-12-07T09:33:21;6.20;91.20
8459;DHT22;4266;48.816;9.154;2022-12-07T09:35:47;6.10;90.70
8459;DHT22;4266;48.816;9.154;2022-12-07T09:38:13;6.30;90.70
8459;DHT22;4266;48.816;9.154;2022-12-07T09:40:38;6.30;90.60
8459;DHT22;4266;48.816;9.154;2022-12-07T09:43:04;6.50;90.60
8459;DHT22;4266;48.816;9.154;2022-12-07T09:45:32;6.40;90.40
8459;DHT22;4266;48.816;9.154;2022-12-07T09:47:56;6.40;90.60
8459;DHT22;4266;48.816;9.154;2022-12-07T09:50:24;6.30;90.80
8459;DHT22;4266;48.816;9.154;2022-12-07T09:52:49;6.40;90.90
8459;DHT22;4266;48.816;9.154;2022-12-07T09:55:16;6.40;90.80
8459;DHT22;4266;48.816;9.154;2022-12-07T09:57:41;6.50;90.70
8459;DHT22;4266;48.816;9.154;2022-12-07T10:00:12;6.40;90.80
8459;DHT22;4266;48.816;9.154;2022-12-07T10:02:37;6.50;90.80
8459;DHT22;4266;48.816;9.154;2022-12-07T10:05:06;6.50;90.70
8459;DHT22;4266;48.816;9.154;2022-12-07T10:07:30;6.50;90.50
8459;DHT22;4266;48.816;9.154;2022-12-07T10:09:56;6.40;90.90
8459;DHT22;4266;48.816;9.154;2022-12-07T10:12:22;6.40;90.80
8459;DHT22;4266;48.816;9.154;2022-12-07T10:14:55;6.40;90.70
8459;DHT22;4266;48.816;9.154;2022-12-07T10:17:32;6.50;90.90
8459;DHT22;4266;48.816;9.154;2022-12-07T10:22:34;6.70;90.70
8459;DHT22;4266;48.816;9.154;2022-12-07T10:25:07;6.80;90.70
8459;DHT22;4266;48.816;9.154;2022-12-07T10:27:30;6.90;90.70
8459;DHT22;4266;48.816;9.154;2022-12-07T10:29:56;6.80;90.90
8459;DHT22;4266;48.816;9.154;2022-12-07T10:32:37;6.80;90.90
8459;DHT22;4266;48.816;9.154;2022-12-07T10:37:41;6.90;90.90
8459;DHT22;4266;48.816;9.154;2022-12-07T10:40:23;6.70;91.00
8459;DHT22;4266;48.816;9.154;2022-12-07T10:42:33;6.60;91.00
8459;DHT22;4266;48.816;9.154;2022-12-07T10:47:41;6.40;91.40
8459;DHT22;4266;48.816;9.154;2022-12-07T10:50:17;6.40;91.70
8459;DHT22;4266;48.816;9.154;2022-12-07T10:53:33;6.40;91.60
8459;DHT22;4266;48.816;9.154;2022-12-07T10:55:52;6.30;91.90
8459;DHT22;4266;48.816;9.154;2022-12-07T10:58:24;6.20;92.00
8459;DHT22;4266;48.816;9.154;2022-12-07T11:01:13;6.10;92.30
8459;DHT22;4266;48.816;9.154;2022-12-07T11:03:52;6.10;92.50
8459;DHT22;4266;48.816;9.154;2022-12-07T11:06:23;6.00;92.40
8459;DHT22;4266;48.816;9.154;2022-12-07T11:08:57;6.00;92.70
8459;DHT22;4266;48.816;9.154;2022-12-07T11:11:38;6.00;92.80
8459;DHT22;4266;48.816;9.154;2022-12-07T11:14:15;6.00;92.60
8459;DHT22;4266;48.816;9.154;2022-12-07T11:16:59;6.10;92.70
8459;DHT22;4266;48.816;9.154;2022-12-07T11:19:43;6.20;92.90
8459;DHT22;4266;48.816;9.154;2022-12-07T11:22:13;6.10;92.80
8459;DHT22;4266;48.816;9.154;2022-12-07T11:24:54;6.20;93.00
8459;DHT22;4266;48.816;9.154;2022-12-07T11:27:22;6.10;93.20
8459;DHT22;4266;48.816;9.154;2022-12-07T11:29:56;5.90;93.20
8459;DHT22;4266;48.816;9.154;2022-12-07T11:32:23;5.90;93.50
8459;DHT22;4266;48.816;9.154;2022-12-07T11:35:25;6.00;93.50
8459;DHT22;4266;48.816;9.154;2022-12-07T11:37:33;6.10;93.10
8459;DHT22;4266;48.816;9.154;2022-12-07T11:40:08;6.10;93.20
8459;DHT22;4266;48.816;9.154;2022-12-07T11:42:33;6.10;93.20
8459;DHT22;4266;48.816;9.154;2022-12-07T11:44:59;6.00;93.20
8459;DHT22;4266;48.816;9.154;2022-12-07T11:47:30;6.00;93.40
8459;DHT22;4266;48.816;9.154;2022-12-07T11:50:03;5.90;93.30
8459;DHT22;4266;48.816;9.154;2022-12-07T11:52:51;5.80;93.20
8459;DHT22;4266;48.816;9.154;2022-12-07T11:58:39;5.70;93.20
8459;DHT22;4266;48.816;9.154;2022-12-07T12:01:13;5.70;93.60
8459;DHT22;4266;48.816;9.154;2022-12-07T12:03:37;5.70;93.40
8459;DHT22;4266;48.816;9.154;2022-12-07T12:06:02;5.80;93.40
8459;DHT22;4266;48.816;9.154;2022-12-07T12:08:31;5.80;93.40
8459;DHT22;4266;48.816;9.154;2022-12-07T12:13:51;6.00;93.70
8459;DHT22;4266;48.816;9.154;2022-12-07T12:16:19;6.00;93.50
8459;DHT22;4266;48.816;9.154;2022-12-07T12:18:46;5.90;93.50
8459;DHT22;4266;48.816;9.154;2022-12-07T12:21:12;6.00;93.40
8459;DHT22;4266;48.816;9.154;2022-12-07T12:24:11;5.90;93.40
8459;DHT22;4266;48.816;9.154;2022-12-07T12:26:35;5.80;93.50
8459;DHT22;4266;48.816;9.154;2022-12-07T12:29:02;6.00;93.50
8459;DHT22;4266;48.816;9.154;2022-12-07T12:31:37;5.80;93.10
8459;DHT22;4266;48.816;9.154;2022-12-07T12:34:02;5.80;93.20
8459;DHT22;4266;48.816;9.154;2022-12-07T12:36:43;5.90;93.20
8459;DHT22;4266;48.816;9.154;2022-12-07T12:39:10;5.80;93.40
8459;DHT22;4266;48.816;9.154;2022-12-07T12:41:52;5.90;93.20
8459;DHT22;4266;48.816;9.154;2022-12-07T12:44:39;6.00;92.90
8459;DHT22;4266;48.816;9.154;2022-12-07T12:49:38;5.90;93.10
8459;DHT22;4266;48.816;9.154;2022-12-07T12:52:45;6.00;92.90
8459;DHT22;4266;48.816;9.154;2022-12-07T12:54:59;6.10;93.00
8459;DHT22;4266;48.816;9.154;2022-12-07T12:57:28;6.20;92.90
8459;DHT22;4266;48.816;9.154;2022-12-07T12:59:57;6.20;92.60
8459;DHT22;4266;48.816;9.154;2022-12-07T13:02:29;6.20;92.70
8459;DHT22;4266;48.816;9.154;2022-12-07T13:04:59;6.10;93.10
8459;DHT22;4266;48.816;9.154;2022-12-07T13:10:02;6.10;92.70
8459;DHT22;4266;48.816;9.154;2022-12-07T13:12:28;6.10;92.80
8459;DHT22;4266;48.816;9.154;2022-12-07T13:14:56;6.10;92.70
8459;DHT22;4266;48.816;9.154;2022-12-07T13:20:20;6.10;92.90
8459;DHT22;4266;48.816;9.154;2022-12-07T13:22:39;6.10;93.00
8459;DHT22;4266;48.816;9.154;2022-12-07T13:25:09;6.20;93.10
8459;DHT22;4266;48.816;9.154;2022-12-07T13:27:36;6.00;93.20
8459;DHT22;4266;48.816;9.154;2022-12-07T13:30:01;5.80;92.90
8459;DHT22;4266;48.816;9.154;2022-12-07T13:32:28;5.90;92.90
8459;DHT22;4266;48.816;9.154;2022-12-07T13:34:52;5.90;93.00
8459;DHT22;4266;48.816;9.154;2022-12-07T13:37:23;5.80;92.90
8459;DHT22;4266;48.816;9.154;2022-12-07T13:39:49;5.80;93.00
8459;DHT22;4266;48.816;9.154;2022-12-07T13:42:25;5.80;93.10
8459;DHT22;4266;48.816;9.154;2022-12-07T13:44:50;5.70;93.00
8459;DHT22;4266;48.816;9.154;2022-12-07T13:47:19;5.70;92.80
8459;DHT22;4266;48.816;9.154;2022-12-07T13:49:47;5.70;93.20
8459;DHT22;4266;48.816;9.154;2022-12-07T13:52:17;5.60;93.50
8459;DHT22;4266;48.816;9.154;2022-12-07T13:54:45;5.70;93.10
8459;DHT22;4266;48.816;9.154;2022-12-07T13:57:10;5.60;93.10
8459;DHT22;4266;48.816;9.154;2022-12-07T13:59:36;5.70;93.10
8459;DHT22;4266;48.816;9.154;2022-12-07T14:02:02;5.60;92.90
8459;DHT22;4266;48.816;9.154;2022-12-07T14:04:33;5.60;93.30
8459;DHT22;4266;48.816;9.154;2022-12-07T14:06:58;5.70;93.30
8459;DHT22;4266;48.816;9.154;2022-12-07T14:09:25;5.70;93.30
8459;DHT22;4266;48.816;9.154;2022-12-07T14:11:51;5.70;93.30
8459;DHT22;4266;48.816;9.154;2022-12-07T14:14:33;5.70;93.10
8459;DHT22;4266;48.816;9.154;2022-12-07T14:17:09;5.80;93.10
8459;DHT22;4266;48.816;9.154;2022-12-07T14:19:40;5.70;93.40
8459;DHT22;4266;48.816;9.154;2022-12-07T14:22:07;5.70;93.40
8459;DHT22;4266;48.816;9.154;2022-12-07T14:24:40;5.80;93.30
8459;DHT22;4266;48.816;9.154;2022-12-07T14:26:58;5.80;93.30
8459;DHT22;4266;48.816;9.154;2022-12-07T14:29:29;5.80;93.40
8459;DHT22;4266;48.816;9.154;2022-12-07T14:31:53;5.60;93.10
8459;DHT22;4266;48.816;9.154;2022-12-07T14:34:20;5.60;93.30
8459;DHT22;4266;48.816;9.154;2022-12-07T14:36:45;5.60;93.40
8459;DHT22;4266;48.816;9.154;2022-12-07T14:39:10;5.60;93.30
8459;DHT22;4266;48.816;9.154;2022-12-07T14:41:36;5.60;93.10
8459;DHT22;4266;48.816;9.154;2022-12-07T14:44:11;5.30;93.50
8459;DHT22;4266;48.816;9.154;2022-12-07T14:46:37;5.30;93.20
8459;DHT22;4266;48.816;9.154;2022-12-07T14:49:03;5.30;93.20
8459;DHT22;4266;48.816;9.154;2022-12-07T14:51:29;5.20;93.30
8459;DHT22;4266;48.816;9.154;2022-12-07T14:53:55;5.20;93.50
8459;DHT22;4266;48.816;9.154;2022-12-07T14:56:21;5.20;93.50
8459;DHT22;4266;48.816;9.154;2022-12-07T14:58:46;5.10;93.70
8459;DHT22;4266;48.816;9.154;2022-12-07T15:01:12;5.10;93.70
8459;DHT22;4266;48.816;9.154;2022-12-07T15:03:38;5.20;93.70
8459;DHT22;4266;48.816;9.154;2022-12-07T15:06:04;5.20;93.60
8459;DHT22;4266;48.816;9.154;2022-12-07T15:08:30;5.10;93.70
8459;DHT22;4266;48.816;9.154;2022-12-07T15:10:56;5.10;93.90
8459;DHT22;4266;48.816;9.154;2022-12-07T15:13:21;5.00;93.60
8459;DHT22;4266;48.816;9.154;2022-12-07T15:15:54;5.00;93.70
8459;DHT22;4266;48.816;9.154;2022-12-07T15:18:20;4.90;93.60
8459;DHT22;4266;48.816;9.154;2022-12-07T15:20:45;4.90;93.90
8459;DHT22;4266;48.816;9.154;2022-12-07T15:23:11;4.90;93.90
8459;DHT22;4266;48.816;9.154;2022-12-07T15:25:40;4.80;94.00
8459;DHT22;4266;48.816;9.154;2022-12-07T15:28:05;4.80;94.00
8459;DHT22;4266;48.816;9.154;2022-12-07T15:30:31;4.70;94.10
8459;DHT22;4266;48.816;9.154;2022-12-07T15:32:57;4.70;94.30
8459;DHT22;4266;48.816;9.154;2022-12-07T15:35:22;4.60;94.40
8459;DHT22;4266;48.816;9.154;2022-12-07T15:37:48;4.70;94.60
8459;DHT22;4266;48.816;9.154;2022-12-07T15:40:14;4.60;94.60
8459;DHT22;4266;48.816;9.154;2022-12-07T15:42:41;4.50;94.70
8459;DHT22;4266;48.816;9.154;2022-12-07T15:45:08;4.50;94.70
8459;DHT22;4266;48.816;9.154;2022-12-07T15:47:38;4.40;94.60
8459;DHT22;4266;48.816;9.154;2022-12-07T15:50:05;4.40;94.40
8459;DHT22;4266;48.816;9.154;2022-12-07T15:52:30;4.20;94.50
8459;DHT22;4266;48.816;9.154;2022-12-07T15:54:57;4.10;94.70
8459;DHT22;4266;48.816;9.154;2022-12-07T15:57:22;4.10;94.70
8459;DHT22;4266;48.816;9.154;2022-12-07T15:59:48;4.00;94.60
8459;DHT22;4266;48.816;9.154;2022-12-07T16:02:14;4.00;94.80
8459;DHT22;4266;48.816;9.154;2022-12-07T16:04:39;4.00;95.00
8459;DHT22;4266;48.816;9.154;2022-12-07T16:07:05;3.90;94.80
8459;DHT22;4266;48.816;9.154;2022-12-07T16:09:31;3.90;95.10
8459;DHT22;4266;48.816;9.154;2022-12-07T16:11:57;3.90;95.10
8459;DHT22;4266;48.816;9.154;2022-12-07T16:14:22;3.90;95.10
8459;DHT22;4266;48.816;9.154;2022-12-07T16:16:49;3.70;95.50
8459;DHT22;4266;48.816;9.154;2022-12-07T16:19:15;3.70;95.50
8459;DHT22;4266;48.816;9.154;2022-12-07T16:21:41;3.70;95.70
8459;DHT22;4266;48.816;9.154;2022-12-07T16:24:07;3.70;95.70
8459;DHT22;4266;48.816;9.154;2022-12-07T16:26:34;3.60;95.70
8459;DHT22;4266;48.816;9.154;2022-12-07T16:29:00;3.70;95.90
8459;DHT22;4266;48.816;9.154;2022-12-07T16:31:26;3.60;95.80
8459;DHT22;4266;48.816;9.154;2022-12-07T16:33:53;3.60;95.80
8459;DHT22;4266;48.816;9.154;2022-12-07T16:36:18;3.60;95.70
8459;DHT22;4266;48.816;9.154;2022-12-07T16:38:44;3.50;95.60
8459;DHT22;4266;48.816;9.154;2022-12-07T16:41:10;3.40;95.60
8459;DHT22;4266;48.816;9.154;2022-12-07T16:43:36;3.10;95.60
8459;DHT22;4266;48.816;9.154;2022-12-07T16:46:02;3.10;95.60
8459;DHT22;4266;48.816;9.154;2022-12-07T16:48:28;3.10;95.90
8459;DHT22;4266;48.816;9.154;2022-12-07T16:50:54;3.00;96.00
8459;DHT22;4266;48.816;9.154;2022-12-07T16:53:20;2.80;96.30